createdAt,value
2022-07-31T00:00:15.291Z,100108.78
2022-07-31T00:02:41.909Z,100107.09
2022-07-31T00:05:08.709Z,100100.88
2022-07-31T00:07:35.315Z,100107.22
2022-07-31T00:10:01.908Z,100098.44
2022-07-31T00:12:28.560Z,100101.25
2022-07-31T00:14:55.168Z,100091.50
2022-07-31T00:17:21.731Z,100094.19
2022-07-31T00:19:48.336Z,100088.94
2022-07-31T00:22:14.919Z,100086.25
2022-07-31T00:24:41.535Z,100084.41
2022-07-31T00:27:10.705Z,100087.25
2022-07-31T00:29:38.175Z,100092.75
2022-07-31T00:32:05.014Z,100095.44
2022-07-31T00:34:31.587Z,100093.59
2022-07-31T00:36:58.145Z,100096.28
2022-07-31T00:39:24.714Z,100096.41
2022-07-31T00:41:51.298Z,100094.81
2022-07-31T00:44:18.441Z,100107.25
2022-07-31T00:46:45.210Z,100103.84
2022-07-31T00:49:11.826Z,100110.19
2022-07-31T00:51:39.094Z,100114.72
2022-07-31T00:54:06.698Z,100106.66
2022-07-31T00:56:33.282Z,100102.25
2022-07-31T00:59:00.114Z,100110.31
2022-07-31T01:01:27.698Z,100106.78
2022-07-31T01:03:54.390Z,100112.25
2022-07-31T01:06:21.015Z,100114.94
2022-07-31T01:08:47.567Z,100108.81
2022-07-31T01:11:18.071Z,100116.88
2022-07-31T01:13:58.416Z,100116.88
2022-07-31T01:16:26.904Z,100115.91
2022-07-31T01:18:55.853Z,100119.53
2022-07-31T01:21:29.299Z,100119.69
2022-07-31T01:24:11.218Z,100116.16
2022-07-31T01:26:51.983Z,100115.16
2022-07-31T01:29:29.607Z,100110.78
2022-07-31T01:31:57.917Z,100112.63
2022-07-31T01:34:28.005Z,100119.06
2022-07-31T01:36:58.820Z,100121.75
2022-07-31T01:39:25.449Z,100113.84
2022-07-31T01:41:52.020Z,100122.72
2022-07-31T01:44:18.653Z,100119.22
2022-07-31T01:46:45.660Z,100123.00
2022-07-31T01:49:12.550Z,100124.81
2022-07-31T01:51:39.599Z,100122.13
2022-07-31T01:54:06.268Z,100122.13
2022-07-31T01:56:32.833Z,100114.22
2022-07-31T01:58:59.759Z,100113.22
2022-07-31T02:01:27.433Z,100123.00
2022-07-31T02:03:56.292Z,100111.53
2022-07-31T02:06:23.305Z,100116.06
2022-07-31T02:08:50.686Z,100111.53
2022-07-31T02:11:18.659Z,100107.88
2022-07-31T02:13:48.950Z,100105.31
2022-07-31T02:16:16.436Z,100109.84
2022-07-31T02:18:43.040Z,100103.62
2022-07-31T02:21:09.670Z,100106.31
2022-07-31T02:23:36.924Z,100108.13
2022-07-31T02:26:04.978Z,100100.94
2022-07-31T02:28:31.842Z,100089.38
2022-07-31T02:30:58.436Z,100087.63
2022-07-31T02:33:25.750Z,100100.09
2022-07-31T02:35:54.874Z,100097.41
2022-07-31T02:38:23.897Z,100087.63
2022-07-31T02:40:51.126Z,100089.47
2022-07-31T02:43:17.704Z,100091.22
2022-07-31T02:45:44.272Z,100100.19
2022-07-31T02:48:10.856Z,100095.97
2022-07-31T02:50:38.062Z,100086.78
2022-07-31T02:53:04.666Z,100091.31
2022-07-31T02:55:31.360Z,100094.00
2022-07-31T02:57:58.126Z,100090.47
2022-07-31T03:00:27.079Z,100090.47
2022-07-31T03:02:54.360Z,100092.28
2022-07-31T03:05:21.338Z,100086.94
2022-07-31T03:07:47.943Z,100092.28
2022-07-31T03:10:14.824Z,100084.50
2022-07-31T03:12:44.898Z,100097.91
2022-07-31T03:15:16.748Z,100085.38
2022-07-31T03:17:43.988Z,100091.31
2022-07-31T03:20:11.211Z,100090.47
2022-07-31T03:22:39.730Z,100087.91
2022-07-31T03:25:06.804Z,100093.41
2022-07-31T03:27:33.415Z,100086.22
2022-07-31T03:30:00.177Z,100082.69
2022-07-31T03:32:26.746Z,100090.59
2022-07-31T03:34:53.368Z,100081.81
2022-07-31T03:37:19.990Z,100085.47
2022-07-31T03:39:46.572Z,100083.78
2022-07-31T03:42:19.155Z,100080.09
2022-07-31T03:44:46.020Z,100083.78
2022-07-31T03:47:12.605Z,100082.06
2022-07-31T03:49:39.342Z,100079.41
2022-07-31T03:52:11.399Z,100090.12
2022-07-31T03:54:38.473Z,100089.28
2022-07-31T03:57:05.041Z,100083.06
2022-07-31T03:59:31.783Z,100090.12
2022-07-31T04:02:06.777Z,100090.84
2022-07-31T04:04:34.655Z,100095.22
2022-07-31T04:07:01.235Z,100090.84
2022-07-31T04:09:27.786Z,100095.47
2022-07-31T04:11:54.388Z,100085.75
2022-07-31T04:14:20.943Z,100099.16
2022-07-31T04:16:47.534Z,100098.16
2022-07-31T04:19:14.091Z,100099.16
2022-07-31T04:21:40.663Z,100101.81
2022-07-31T04:24:07.674Z,100104.63
2022-07-31T04:26:34.272Z,100094.75
2022-07-31T04:29:01.074Z,100103.75
2022-07-31T04:31:27.644Z,100100.38
2022-07-31T04:33:56.729Z,100102.19
2022-07-31T04:36:29.583Z,100107.28
2022-07-31T04:38:57.900Z,100101.09
2022-07-31T04:41:24.534Z,100096.69
2022-07-31T04:43:51.102Z,100103.91
2022-07-31T04:46:18.081Z,100095.09
2022-07-31T04:48:44.992Z,100095.00
2022-07-31T04:51:22.506Z,100094.16
2022-07-31T04:53:51.481Z,100093.19
2022-07-31T04:56:34.090Z,100099.25
2022-07-31T04:59:01.844Z,100094.03
2022-07-31T05:01:28.450Z,100086.22
2022-07-31T05:03:55.017Z,100101.31
2022-07-31T05:06:21.586Z,100110.34
2022-07-31T05:08:48.153Z,100096.94
2022-07-31T05:11:23.316Z,100098.53
2022-07-31T05:13:51.232Z,100107.44
2022-07-31T05:16:18.662Z,100108.41
2022-07-31T05:18:45.508Z,100120.09
2022-07-31T05:21:13.123Z,100111.34
2022-07-31T05:23:40.653Z,100113.88
2022-07-31T05:26:07.266Z,100113.03
2022-07-31T05:28:33.824Z,100113.28
2022-07-31T05:31:00.634Z,100107.94
2022-07-31T05:33:28.477Z,100112.41
2022-07-31T05:35:58.385Z,100123.13
2022-07-31T05:38:25.362Z,100119.38
2022-07-31T05:40:51.947Z,100108.66
2022-07-31T05:43:18.746Z,100119.50
2022-07-31T05:45:47.040Z,100116.81
2022-07-31T05:48:14.739Z,100120.34
2022-07-31T05:50:45.099Z,100115.22
2022-07-31T05:53:17.718Z,100114.38
2022-07-31T05:55:45.102Z,100111.69
2022-07-31T05:58:16.454Z,100112.69
2022-07-31T06:00:44.170Z,100113.53
2022-07-31T06:03:12.501Z,100117.28
2022-07-31T06:05:39.933Z,100118.28
2022-07-31T06:08:06.544Z,100113.91
2022-07-31T06:10:36.282Z,100108.53
2022-07-31T06:13:03.648Z,100108.53
2022-07-31T06:15:34.416Z,100106.94
2022-07-31T06:18:02.853Z,100107.56
2022-07-31T06:20:29.593Z,100109.38
2022-07-31T06:22:56.237Z,100111.34
2022-07-31T06:25:22.901Z,100106.94
2022-07-31T06:27:59.291Z,100121.22
2022-07-31T06:30:27.818Z,100111.34
2022-07-31T06:32:54.463Z,100113.06
2022-07-31T06:35:21.053Z,100106.94
2022-07-31T06:37:47.646Z,100111.22
2022-07-31T06:40:14.580Z,100114.97
2022-07-31T06:42:41.437Z,100114.03
2022-07-31T06:45:08.744Z,100105.13
2022-07-31T06:47:35.360Z,100123.03
2022-07-31T06:50:02.183Z,100123.03
2022-07-31T06:52:28.741Z,100121.31
2022-07-31T06:54:55.311Z,100121.22
2022-07-31T06:57:21.875Z,100110.50
2022-07-31T06:59:48.459Z,100113.28
2022-07-31T07:02:15.062Z,100122.19
2022-07-31T07:05:05.328Z,100102.47
2022-07-31T07:07:31.720Z,100109.38
2022-07-31T07:09:58.849Z,100098.66
2022-07-31T07:12:25.471Z,100095.13
2022-07-31T07:14:53.523Z,100103.19
2022-07-31T07:17:20.153Z,100104.87
2022-07-31T07:19:46.756Z,100107.69
2022-07-31T07:22:30.080Z,100104.16
2022-07-31T07:24:58.511Z,100095.13
2022-07-31T07:27:25.796Z,100093.06
2022-07-31T07:29:52.386Z,100090.38
2022-07-31T07:32:18.948Z,100095.63
2022-07-31T07:34:45.519Z,100097.44
2022-07-31T07:37:12.589Z,100099.28
2022-07-31T07:39:39.174Z,100090.25
2022-07-31T07:42:06.295Z,100092.81
2022-07-31T07:44:33.135Z,100088.28
2022-07-31T07:47:01.250Z,100089.16
2022-07-31T07:49:27.910Z,100101.44
2022-07-31T07:52:09.530Z,100099.75
2022-07-31T07:54:36.152Z,100099.53
2022-07-31T07:57:02.749Z,100101.22
2022-07-31T07:59:29.302Z,100092.19
2022-07-31T08:01:56.644Z,100102.91
2022-07-31T08:04:23.219Z,100103.75
2022-07-31T08:06:49.798Z,100113.41
2022-07-31T08:09:16.381Z,100106.91
2022-07-31T08:11:43.006Z,100113.97
2022-07-31T08:14:09.667Z,100113.75
2022-07-31T08:16:36.242Z,100111.78
2022-07-31T08:19:02.844Z,100120.44
2022-07-31T08:21:29.445Z,100125.56
2022-07-31T08:23:56.044Z,100132.63
2022-07-31T08:26:22.643Z,100138.72
2022-07-31T08:28:54.024Z,100141.41
2022-07-31T08:31:22.575Z,100144.94
2022-07-31T08:33:49.131Z,100141.28
2022-07-31T08:36:15.710Z,100154.81
2022-07-31T08:38:42.302Z,100156.50
2022-07-31T08:41:08.873Z,100155.66
2022-07-31T08:44:02.639Z,100151.25
2022-07-31T08:46:22.347Z,100153.84
2022-07-31T08:48:49.933Z,100148.34
2022-07-31T08:51:16.539Z,100148.34
2022-07-31T08:53:43.189Z,100149.19
2022-07-31T08:56:09.763Z,100148.34
2022-07-31T08:58:39.700Z,100150.03
2022-07-31T09:01:08.060Z,100152.72
2022-07-31T09:03:36.097Z,100153.56
2022-07-31T09:06:03.019Z,100164.19
2022-07-31T09:08:36.096Z,100165.03
2022-07-31T09:11:06.599Z,100161.25
2022-07-31T09:13:34.845Z,100170.06
2022-07-31T09:16:01.735Z,100170.66
2022-07-31T09:18:28.313Z,100172.22
2022-07-31T09:20:56.039Z,100162.50
2022-07-31T09:23:22.960Z,100172.22
2022-07-31T09:25:57.301Z,100180.16
2022-07-31T09:28:41.239Z,100185.41
2022-07-31T09:31:09.007Z,100196.84
2022-07-31T09:33:43.826Z,100188.81
2022-07-31T09:36:12.665Z,100200.38
2022-07-31T09:38:41.118Z,100200.28
2022-07-31T09:41:56.949Z,100195.88
2022-07-31T09:44:09.673Z,100189.56
2022-07-31T09:46:47.003Z,100187.56
2022-07-31T09:49:13.899Z,100194.66
2022-07-31T09:51:41.522Z,100184.53
2022-07-31T09:54:08.652Z,100186.22
2022-07-31T09:56:35.362Z,100180.72
2022-07-31T09:59:02.073Z,100184.00
2022-07-31T10:01:28.987Z,100186.59
2022-07-31T10:03:56.414Z,100179.37
2022-07-31T10:06:23.123Z,100184.62
2022-07-31T10:08:49.695Z,100189.00
2022-07-31T10:11:19.430Z,100191.56
2022-07-31T10:13:46.867Z,100195.09
2022-07-31T10:16:14.134Z,100198.50
2022-07-31T10:18:44.574Z,100194.72
2022-07-31T10:21:11.579Z,100185.78
2022-07-31T10:23:41.847Z,100200.81
2022-07-31T10:26:08.428Z,100186.41
2022-07-31T10:28:37.067Z,100193.47
2022-07-31T10:31:04.031Z,100199.72
2022-07-31T10:33:45.955Z,100190.69
2022-07-31T10:36:15.418Z,100189.69
2022-07-31T10:38:46.115Z,100196.03
2022-07-31T10:41:33.031Z,100196.91
2022-07-31T10:44:01.127Z,100185.03
2022-07-31T10:46:28.779Z,100189.44
2022-07-31T10:48:55.496Z,100186.63
2022-07-31T10:51:23.271Z,100177.59
2022-07-31T10:54:00.538Z,100183.69
2022-07-31T10:56:28.071Z,100188.94
2022-07-31T10:58:56.052Z,100191.47
2022-07-31T11:01:23.679Z,100190.75
2022-07-31T11:03:53.706Z,100196.97
2022-07-31T11:06:21.541Z,100203.06
2022-07-31T11:08:49.246Z,100214.66
2022-07-31T11:11:16.007Z,100211.00
2022-07-31T11:13:56.004Z,100219.94
2022-07-31T11:16:22.833Z,100218.97
2022-07-31T11:19:14.992Z,100220.78
2022-07-31T11:21:41.774Z,100229.69
2022-07-31T11:24:15.203Z,100236.75
2022-07-31T11:26:49.735Z,100233.22
2022-07-31T11:29:59.209Z,100246.66
2022-07-31T11:32:16.885Z,100240.31
2022-07-31T11:34:51.084Z,100235.78
2022-07-31T11:37:19.184Z,100225.03
2022-07-31T11:39:52.589Z,100225.91
2022-07-31T11:42:19.971Z,100241.16
2022-07-31T11:44:52.675Z,100240.19
2022-07-31T11:48:09.484Z,100234.81
2022-07-31T11:50:06.221Z,100233.97
2022-07-31T11:52:36.888Z,100245.56
2022-07-31T11:55:09.614Z,100246.41
2022-07-31T11:57:52.148Z,100236.66
2022-07-31T12:00:26.871Z,100236.66
2022-07-31T12:02:56.160Z,100236.53
2022-07-31T12:05:39.121Z,100237.50
2022-07-31T12:08:06.988Z,100230.41
2022-07-31T12:10:33.601Z,100235.69
2022-07-31T12:13:00.196Z,100249.94
2022-07-31T12:15:26.832Z,100244.56
2022-07-31T12:18:03.772Z,100255.19
2022-07-31T12:20:36.792Z,100245.44
2022-07-31T12:23:05.429Z,100245.44
2022-07-31T12:25:42.395Z,100236.53
2022-07-31T12:28:09.566Z,100238.22
2022-07-31T12:30:36.265Z,100241.75
2022-07-31T12:33:07.453Z,100238.22
2022-07-31T12:35:56.460Z,100238.34
2022-07-31T12:38:40.848Z,100251.78
2022-07-31T12:41:11.501Z,100249.09
2022-07-31T12:43:38.108Z,100263.38
2022-07-31T12:46:07.418Z,100254.47
2022-07-31T12:48:39.335Z,100263.50
2022-07-31T12:51:07.737Z,100257.25
2022-07-31T12:53:34.379Z,100257.25
2022-07-31T12:56:01.242Z,100268.97
2022-07-31T12:58:27.878Z,100271.56
2022-07-31T13:00:56.185Z,100268.00
2022-07-31T13:03:22.764Z,100264.47
2022-07-31T13:05:52.133Z,100268.00
2022-07-31T13:08:18.927Z,100269.97
2022-07-31T13:10:46.174Z,100266.31
2022-07-31T13:13:12.729Z,100257.41
2022-07-31T13:15:39.404Z,100264.59
2022-07-31T13:18:06.128Z,100273.63
2022-07-31T13:20:32.792Z,100262.91
2022-07-31T13:22:59.527Z,100274.50
2022-07-31T13:25:27.783Z,100283.50
2022-07-31T13:27:54.432Z,100268.34
2022-07-31T13:30:21.002Z,100271.91
2022-07-31T13:32:47.573Z,100269.22
2022-07-31T13:35:26.465Z,100262.12
2022-07-31T13:37:55.303Z,100254.06
2022-07-31T13:40:41.823Z,100259.44
2022-07-31T13:43:08.439Z,100248.69
2022-07-31T13:45:35.036Z,100255.91
2022-07-31T13:48:04.422Z,100258.72
2022-07-31T13:50:33.603Z,100259.72
2022-07-31T13:53:00.406Z,100254.44
2022-07-31T13:55:26.987Z,100255.44
2022-07-31T13:57:53.584Z,100266.16
2022-07-31T14:00:26.655Z,100257.41
2022-07-31T14:02:53.234Z,100260.19
2022-07-31T14:05:19.799Z,100264.72
2022-07-31T14:07:51.820Z,100265.56
2022-07-31T14:10:20.809Z,100267.41
2022-07-31T14:12:48.158Z,100265.56
2022-07-31T14:15:14.759Z,100266.56
2022-07-31T14:17:41.333Z,100275.59
2022-07-31T14:20:08.482Z,100274.75
2022-07-31T14:22:35.062Z,100285.47
2022-07-31T14:25:01.638Z,100277.41
2022-07-31T14:27:28.220Z,100275.72
2022-07-31T14:29:55.225Z,100283.78
2022-07-31T14:32:25.224Z,100292.69
2022-07-31T14:34:52.028Z,100290.09
2022-07-31T14:37:18.643Z,100293.66
2022-07-31T14:39:45.402Z,100301.72
2022-07-31T14:42:12.304Z,100290.00
2022-07-31T14:44:41.775Z,100300.72
2022-07-31T14:47:09.437Z,100297.19
2022-07-31T14:50:09.249Z,100306.09
2022-07-31T14:52:22.706Z,100303.41
2022-07-31T14:54:49.305Z,100294.50
2022-07-31T14:57:20.037Z,100291.94
2022-07-31T14:59:49.988Z,100271.44
2022-07-31T15:02:21.821Z,100254.50
2022-07-31T15:04:49.019Z,100273.41
2022-07-31T15:10:05.740Z,100262.06
2022-07-31T15:12:32.395Z,100267.66
2022-07-31T15:14:59.070Z,100266.09
2022-07-31T15:17:25.659Z,100256.34
2022-07-31T15:19:52.336Z,100263.66
2022-07-31T15:22:19.366Z,100255.47
2022-07-31T15:24:48.258Z,100251.94
2022-07-31T15:27:15.274Z,100245.72
2022-07-31T15:30:05.643Z,100246.72
2022-07-31T15:32:29.470Z,100234.28
2022-07-31T15:34:56.071Z,100231.69
2022-07-31T15:37:22.632Z,100240.72
2022-07-31T15:40:02.769Z,100236.34
2022-07-31T15:42:34.265Z,100242.69
2022-07-31T15:45:00.983Z,100234.78
2022-07-31T15:47:27.566Z,100243.69
2022-07-31T15:49:54.152Z,100234.88
2022-07-31T15:52:20.733Z,100237.56
2022-07-31T15:54:47.556Z,100235.88
2022-07-31T15:57:19.107Z,100230.63
2022-07-31T15:59:45.687Z,100238.69
2022-07-31T16:02:12.248Z,100227.09
2022-07-31T16:04:51.590Z,100228.91
2022-07-31T16:08:30.276Z,100224.53
2022-07-31T16:10:15.333Z,100221.97
2022-07-31T16:12:46.752Z,100227.34
2022-07-31T16:15:13.600Z,100227.34
2022-07-31T16:17:40.595Z,100224.78
2022-07-31T16:20:08.993Z,100228.44
2022-07-31T16:22:39.398Z,100224.91
2022-07-31T16:25:06.860Z,100231.25
2022-07-31T16:27:33.567Z,100224.19
2022-07-31T16:30:02.060Z,100224.19
2022-07-31T16:32:29.795Z,100232.22
2022-07-31T16:35:00.472Z,100238.59
2022-07-31T16:37:51.922Z,100215.38
2022-07-31T16:40:29.981Z,100225.41
2022-07-31T16:43:02.982Z,100216.50
2022-07-31T16:45:48.693Z,100216.66
2022-07-31T16:48:15.289Z,100218.53
2022-07-31T16:50:41.835Z,100215.00
2022-07-31T16:53:08.417Z,100217.69
2022-07-31T16:55:46.126Z,100210.63
2022-07-31T16:58:26.739Z,100207.09
2022-07-31T17:00:53.376Z,100210.72
2022-07-31T17:03:58.642Z,100205.38
2022-07-31T17:06:10.211Z,100206.34
2022-07-31T17:08:38.182Z,100210.03
2022-07-31T17:11:04.954Z,100204.78
2022-07-31T17:13:31.515Z,100213.81
2022-07-31T17:15:58.087Z,100201.50
2022-07-31T17:18:25.443Z,100209.53
2022-07-31T17:20:53.271Z,100215.88
2022-07-31T17:23:22.638Z,100217.72
2022-07-31T17:26:09.708Z,100225.88
2022-07-31T17:28:47.261Z,100224.03
2022-07-31T17:31:13.830Z,100223.06
2022-07-31T17:33:54.843Z,100219.66
2022-07-31T17:36:27.251Z,100214.41
2022-07-31T17:38:53.842Z,100237.69
2022-07-31T17:41:24.723Z,100236.94
2022-07-31T17:43:53.113Z,100231.59
2022-07-31T17:46:28.233Z,100233.41
2022-07-31T17:49:01.499Z,100232.56
2022-07-31T17:51:28.071Z,100222.97
2022-07-31T17:53:59.550Z,100248.91
2022-07-31T17:56:26.692Z,100245.34
2022-07-31T17:58:53.355Z,100246.34
2022-07-31T18:01:20.043Z,100243.78
2022-07-31T18:03:47.531Z,100247.56
2022-07-31T18:06:14.119Z,100249.38
2022-07-31T18:08:40.723Z,100240.50
2022-07-31T18:11:08.271Z,100248.66
2022-07-31T18:13:39.135Z,100248.75
2022-07-31T18:16:15.098Z,100256.94
2022-07-31T18:18:41.737Z,100259.62
2022-07-31T18:21:08.344Z,100253.28
2022-07-31T18:23:34.959Z,100260.72
2022-07-31T18:26:02.621Z,100255.38
2022-07-31T18:28:29.200Z,100253.78
2022-07-31T18:30:55.796Z,100258.28
2022-07-31T18:33:22.383Z,100255.59
2022-07-31T18:35:48.984Z,100255.47
2022-07-31T18:38:15.627Z,100257.31
2022-07-31T18:40:42.269Z,100258.28
2022-07-31T18:43:09.093Z,100261.94
2022-07-31T18:45:36.067Z,100254.97
2022-07-31T18:48:08.124Z,100259.34
2022-07-31T18:50:59.054Z,100268.50
2022-07-31T18:53:21.356Z,100269.50
2022-07-31T18:55:47.969Z,100278.25
2022-07-31T18:58:14.671Z,100274.84
2022-07-31T19:00:41.247Z,100278.47
2022-07-31T19:03:07.920Z,100277.63
2022-07-31T19:05:34.591Z,100285.66
2022-07-31T19:08:01.171Z,100281.28
2022-07-31T19:10:29.458Z,100284.81
2022-07-31T19:12:58.566Z,100291.16
2022-07-31T19:15:25.130Z,100292.13
2022-07-31T19:17:51.695Z,100294.81
2022-07-31T19:20:54.743Z,100298.47
2022-07-31T19:23:12.580Z,100292.22
2022-07-31T19:26:02.806Z,100300.41
2022-07-31T19:28:27.194Z,100304.06
2022-07-31T19:30:54.094Z,100308.44
2022-07-31T19:33:20.657Z,100307.59
2022-07-31T19:35:55.430Z,100295.31
2022-07-31T19:38:27.311Z,100294.41
2022-07-31T19:40:53.981Z,100306.03
2022-07-31T19:43:20.632Z,100304.28
2022-07-31T19:46:10.740Z,100311.47
2022-07-31T19:48:33.954Z,100302.59
2022-07-31T19:51:00.511Z,100300.03
2022-07-31T19:53:27.102Z,100296.50
2022-07-31T19:55:53.655Z,100296.56
2022-07-31T19:58:21.362Z,100303.69
2022-07-31T20:00:47.932Z,100301.00
2022-07-31T20:03:14.625Z,100294.87
2022-07-31T20:05:41.275Z,100289.50
2022-07-31T20:08:08.011Z,100287.81
2022-07-31T20:10:34.571Z,100286.09
2022-07-31T20:13:01.174Z,100282.56
2022-07-31T20:15:27.736Z,100285.25
2022-07-31T20:18:26.626Z,100292.31
2022-07-31T20:20:56.862Z,100290.63
2022-07-31T20:23:23.575Z,100287.94
2022-07-31T20:25:50.177Z,100282.66
2022-07-31T20:28:16.828Z,100281.81
2022-07-31T20:30:43.426Z,100281.81
2022-07-31T20:33:11.154Z,100292.53
2022-07-31T20:35:47.568Z,100276.59
2022-07-31T20:38:16.526Z,100279.28
2022-07-31T20:40:53.034Z,100269.53
2022-07-31T20:43:21.111Z,100278.41
2022-07-31T20:45:47.769Z,100275.84
2022-07-31T20:48:15.008Z,100287.44
2022-07-31T20:50:41.597Z,100273.28
2022-07-31T20:53:08.209Z,100282.16
2022-07-31T20:55:35.146Z,100275.13
2022-07-31T20:58:01.866Z,100279.62
2022-07-31T21:00:30.028Z,100276.09
2022-07-31T21:02:56.627Z,100273.41
2022-07-31T21:05:27.435Z,100281.44
2022-07-31T21:07:54.151Z,100278.78
2022-07-31T21:10:20.728Z,100278.88
2022-07-31T21:12:47.315Z,100278.88
2022-07-31T21:15:30.249Z,100272.66
2022-07-31T21:18:00.473Z,100281.66
2022-07-31T21:20:32.865Z,100282.53
2022-07-31T21:23:16.843Z,100280.69
2022-07-31T21:25:43.679Z,100281.66
2022-07-31T21:28:10.843Z,100293.25
2022-07-31T21:30:40.718Z,100296.91
2022-07-31T21:33:07.893Z,100296.91
2022-07-31T21:35:37.017Z,100294.22
2022-07-31T21:38:04.507Z,100291.66
2022-07-31T21:40:33.873Z,100288.13
2022-07-31T21:43:00.746Z,100289.06
2022-07-31T21:45:29.635Z,100287.25
2022-07-31T21:48:15.238Z,100295.28
2022-07-31T21:50:42.638Z,100293.50
2022-07-31T21:53:09.211Z,100299.69
2022-07-31T21:55:36.834Z,100310.50
2022-07-31T21:58:03.969Z,100304.31
2022-07-31T22:00:30.582Z,100310.50
2022-07-31T22:02:57.178Z,100312.34
2022-07-31T22:05:42.442Z,100312.47
2022-07-31T22:08:09.238Z,100317.81
2022-07-31T22:10:35.795Z,100308.69
2022-07-31T22:13:02.384Z,100311.50
2022-07-31T22:15:55.560Z,100314.16
2022-07-31T22:18:15.664Z,100314.41
2022-07-31T22:20:45.686Z,100318.53
2022-07-31T22:23:12.362Z,100310.75
2022-07-31T22:25:40.397Z,100310.63
2022-07-31T22:28:07.459Z,100320.50
2022-07-31T22:30:34.123Z,100312.59
2022-07-31T22:33:01.059Z,100323.31
2022-07-31T22:35:28.314Z,100311.75
2022-07-31T22:37:54.935Z,100310.84
2022-07-31T22:40:22.374Z,100306.38
2022-07-31T22:42:57.585Z,100308.19
2022-07-31T22:45:25.127Z,100308.31
2022-07-31T22:47:51.815Z,100308.31
2022-07-31T22:50:18.496Z,100300.28
2022-07-31T22:52:45.204Z,100301.25
2022-07-31T22:55:11.878Z,100294.28
2022-07-31T22:57:40.858Z,100295.13
2022-07-31T23:00:09.188Z,100304.91
2022-07-31T23:02:35.883Z,100298.69
2022-07-31T23:05:02.648Z,100299.62
2022-07-31T23:07:29.243Z,100302.31
2022-07-31T23:09:55.871Z,100307.81
2022-07-31T23:12:22.463Z,100311.31
2022-07-31T23:14:54.924Z,100310.47
2022-07-31T23:17:23.354Z,100293.56
2022-07-31T23:19:53.803Z,100304.41
2022-07-31T23:22:20.858Z,100304.50
2022-07-31T23:25:00.340Z,100303.62
2022-07-31T23:27:26.948Z,100305.34
2022-07-31T23:29:53.546Z,100307.06
2022-07-31T23:32:20.126Z,100306.19
2022-07-31T23:34:46.696Z,100301.09
2022-07-31T23:37:13.280Z,100303.62
2022-07-31T23:39:40.086Z,100302.78
2022-07-31T23:42:25.530Z,100296.59
2022-07-31T23:44:52.107Z,100293.16
2022-07-31T23:47:19.003Z,100287.78
2022-07-31T23:49:46.336Z,100283.19
2022-07-31T23:52:12.971Z,100284.37
2022-07-31T23:54:39.648Z,100286.22
2022-07-31T23:57:06.275Z,100288.75
2022-07-31T23:59:32.834Z,100280.97
